Time;durP1;ratioP1;P1;durP2;ratioP2;P2;SDS_P1;SDS_P2;PMS_P1;PMS_P2;Temp;Humidity;BMP_temperature;BMP_pressure;BME280_temperature;BME280_humidity;BME280_pressure;Samples;Min_cycle;Max_cycle;Signal;HPM_P1;HPM_P2
2023/10/02 00:00:43;;;;;;;2.83;2.35;;;;;;;;;;4998515;28;58517;-70
2023/10/02 00:03:09;;;;;;;2.85;1.90;;;;;;;;;;4999021;28;59442;-74
2023/10/02 00:05:41;;;;;;;3.20;1.95;;;;;;;;;;4996431;28;58589;-75
2023/10/02 00:08:06;;;;;;;2.33;1.45;;;;;;;;;;4998036;28;59166;-74
2023/10/02 00:10:33;;;;;;;2.67;1.90;;;;;;;;;;4996547;28;59833;-70
2023/10/02 00:12:59;;;;;;;1.95;1.70;;;;;;;;;;4998000;28;58448;-73
2023/10/02 00:15:24;;;;;;;2.08;1.70;;;;;;;;;;4999198;28;58550;-69
2023/10/02 00:17:50;;;;;;;2.17;1.58;;;;;;;;;;4998269;28;59566;-70
2023/10/02 00:20:21;;;;;;;2.97;1.67;;;;;;;;;;4997907;28;58537;-70
2023/10/02 00:22:47;;;;;;;2.50;1.83;;;;;;;;;;4996677;28;59304;-70
2023/10/02 00:25:16;;;;;;;2.10;1.90;;;;;;;;;;4997315;28;59837;-70
2023/10/02 00:27:45;;;;;;;3.55;2.20;;;;;;;;;;5001699;28;58565;-73
2023/10/02 00:30:13;;;;;;;2.85;2.00;;;;;;;;;;5002395;28;58390;-71
2023/10/02 00:32:41;;;;;;;4.10;1.88;;;;;;;;;;5000861;28;58514;-73
2023/10/02 00:35:10;;;;;;;1.90;1.58;;;;;;;;;;4997927;28;59496;-71
2023/10/02 00:37:45;;;;;;;3.00;1.70;;;;;;;;;;4997693;28;59919;-70
2023/10/02 00:40:22;;;;;;;3.33;2.03;;;;;;;;;;4999753;28;58578;-70
2023/10/02 00:42:58;;;;;;;1.92;1.70;;;;;;;;;;4999049;28;60360;-69
2023/10/02 00:45:38;;;;;;;2.60;1.65;;;;;;;;;;5000231;28;59784;-70
2023/10/02 00:50:54;;;;;;;2.72;1.55;;;;;;;;;;5000288;28;58446;-74
2023/10/02 00:53:24;;;;;;;2.55;1.73;;;;;;;;;;5000326;28;58427;-73
2023/10/02 00:55:53;;;;;;;2.20;1.88;;;;;;;;;;5002665;28;59425;-73
2023/10/02 00:58:19;;;;;;;2.33;1.87;;;;;;;;;;5001999;28;58445;-75
2023/10/02 01:00:50;;;;;;;3.63;2.05;;;;;;;;;;5001355;28;58371;-75
2023/10/02 01:03:16;;;;;;;2.47;1.98;;;;;;;;;;5001420;28;59629;-74
2023/10/02 01:05:47;;;;;;;2.35;2.05;;;;;;;;;;5001477;28;59229;-74
2023/10/02 01:08:42;;;;;;;2.00;1.60;;;;;;;;;;4998623;28;58506;-74
2023/10/02 01:11:08;;;;;;;2.40;1.80;;;;;;;;;;5000725;28;60198;-73
2023/10/02 01:13:38;;;;;;;2.33;2.13;;;;;;;;;;5002313;28;58450;-76
2023/10/02 01:16:09;;;;;;;2.22;1.85;;;;;;;;;;4999698;28;60549;-76
2023/10/02 01:18:39;;;;;;;2.47;1.95;;;;;;;;;;5000630;28;59852;-75
2023/10/02 01:21:18;;;;;;;1.95;1.75;;;;;;;;;;5000336;28;58919;-74
2023/10/02 01:23:43;;;;;;;2.42;1.75;;;;;;;;;;4999475;28;58602;-73
2023/10/02 01:26:08;;;;;;;2.77;1.73;;;;;;;;;;4999535;28;58813;-75
2023/10/02 01:28:51;;;;;;;2.63;2.00;;;;;;;;;;4999394;28;58598;-72
2023/10/02 01:31:35;;;;;;;2.08;1.80;;;;;;;;;;5003725;28;61060;-75
2023/10/02 01:34:00;;;;;;;2.33;1.80;;;;;;;;;;4982832;28;59570;-69
2023/10/02 01:36:30;;;;;;;2.70;2.23;;;;;;;;;;4985210;28;60490;-69
2023/10/02 01:38:59;;;;;;;2.35;1.98;;;;;;;;;;5002816;28;64759;-68
2023/10/02 01:41:26;;;;;;;2.60;1.48;;;;;;;;;;5003592;28;58413;-69
2023/10/02 01:43:52;;;;;;;2.53;1.92;;;;;;;;;;5004765;28;59484;-69
2023/10/02 01:46:17;;;;;;;2.20;1.60;;;;;;;;;;5002759;28;58568;-69
2023/10/02 01:48:48;;;;;;;1.77;1.63;;;;;;;;;;5005148;28;58473;-68
2023/10/02 01:51:25;;;;;;;4.85;2.33;;;;;;;;;;5004979;28;61148;-69
2023/10/02 01:53:54;;;;;;;2.67;2.15;;;;;;;;;;5003233;28;58427;-68
2023/10/02 01:56:20;;;;;;;2.63;1.70;;;;;;;;;;5004924;28;58404;-69
2023/10/02 01:58:48;;;;;;;1.88;1.40;;;;;;;;;;5003546;28;58512;-69
2023/10/02 02:01:13;;;;;;;1.77;1.33;;;;;;;;;;5003738;28;58366;-69
2023/10/02 02:03:39;;;;;;;1.58;1.48;;;;;;;;;;5004829;28;58500;-68
2023/10/02 02:06:11;;;;;;;1.58;1.48;;;;;;;;;;5002368;28;59378;-68
2023/10/02 02:08:43;;;;;;;2.97;2.28;;;;;;;;;;5003912;28;58409;-68
2023/10/02 02:11:16;;;;;;;2.50;2.22;;;;;;;;;;5004177;28;59682;-69
2023/10/02 02:13:44;;;;;;;1.73;1.63;;;;;;;;;;5003388;28;58970;-69
2023/10/02 02:16:15;;;;;;;1.85;1.73;;;;;;;;;;5003076;28;58405;-69
2023/10/02 02:18:42;;;;;;;3.63;2.08;;;;;;;;;;5005108;28;59599;-69
2023/10/02 02:21:10;;;;;;;1.63;1.48;;;;;;;;;;5002823;28;58494;-69
2023/10/02 02:23:35;;;;;;;;;;;;;;;;;;5004502;28;59446;-67
2023/10/02 02:26:00;;;;;;;1.85;1.48;;;;;;;;;;5004215;28;58352;-68
2023/10/02 02:28:26;;;;;;;2.13;1.90;;;;;;;;;;5002368;28;59113;-67
2023/10/02 02:30:51;;;;;;;1.83;1.73;;;;;;;;;;5004703;28;59392;-68
2023/10/02 02:33:16;;;;;;;2.30;1.83;;;;;;;;;;5002421;28;58880;-68
2023/10/02 02:35:44;;;;;;;2.07;1.87;;;;;;;;;;5003807;28;58500;-68
2023/10/02 02:38:15;;;;;;;2.60;1.83;;;;;;;;;;5002533;28;60327;-68
2023/10/02 02:40:41;;;;;;;2.25;1.85;;;;;;;;;;5003338;28;58408;-68
2023/10/02 02:43:22;;;;;;;2.38;2.05;;;;;;;;;;5003314;28;59355;-69
2023/10/02 02:45:51;;;;;;;2.53;1.80;;;;;;;;;;5002479;28;59910;-68
2023/10/02 02:48:16;;;;;;;2.42;1.77;;;;;;;;;;5005906;28;58412;-68
2023/10/02 02:50:41;;;;;;;2.17;1.97;;;;;;;;;;5003104;28;58567;-68
2023/10/02 02:53:23;;;;;;;2.17;1.73;;;;;;;;;;5003586;28;59058;-68
2023/10/02 02:56:14;;;;;;;2.08;1.70;;;;;;;;;;5002962;28;58592;-68
2023/10/02 02:58:40;;;;;;;2.90;1.75;;;;;;;;;;5004173;28;60513;-68
2023/10/02 03:01:11;;;;;;;2.57;2.00;;;;;;;;;;5003908;28;59913;-68
2023/10/02 03:03:41;;;;;;;2.00;1.80;;;;;;;;;;5004102;28;58529;-68
2023/10/02 03:06:13;;;;;;;1.98;1.73;;;;;;;;;;5004038;28;58853;-68
2023/10/02 03:08:38;;;;;;;2.20;2.00;;;;;;;;;;5003565;28;58401;-68
2023/10/02 03:11:06;;;;;;;2.43;2.23;;;;;;;;;;5003474;28;58578;-67
2023/10/02 03:13:32;;;;;;;3.47;2.35;;;;;;;;;;5001513;28;58829;-68
2023/10/02 03:16:08;;;;;;;2.43;2.20;;;;;;;;;;5002654;28;58468;-67
2023/10/02 03:18:36;;;;;;;2.03;1.73;;;;;;;;;;5003453;28;59622;-66
2023/10/02 03:21:14;;;;;;;;;;;;;;;;;;5003180;28;58941;-67
2023/10/02 03:23:39;;;;;;;;;;;;;;;;;;5003450;28;58565;-67
2023/10/02 03:26:21;;;;;;;3.08;2.05;;;;;;;;;;5000830;28;60481;-67
2023/10/02 03:28:47;;;;;;;2.63;2.17;;;;;;;;;;5002160;28;58978;-67
2023/10/02 03:31:16;;;;;;;4.10;2.22;;;;;;;;;;5003203;28;59225;-67
2023/10/02 03:33:42;;;;;;;2.92;2.25;;;;;;;;;;5002415;28;59237;-68
2023/10/02 03:36:10;;;;;;;2.85;2.22;;;;;;;;;;5003164;28;58414;-67
2023/10/02 03:38:41;;;;;;;;;;;;;;;;;;5001173;28;59458;-68
2023/10/02 03:41:06;;;;;;;3.15;2.08;;;;;;;;;;5001805;28;58781;-68
2023/10/02 03:43:34;;;;;;;3.40;2.47;;;;;;;;;;5003784;28;58365;-68
2023/10/02 03:46:06;;;;;;;2.50;2.03;;;;;;;;;;5002418;28;58663;-67
2023/10/02 03:48:32;;;;;;;2.47;2.22;;;;;;;;;;5002460;28;58415;-68
2023/10/02 03:50:57;;;;;;;2.42;1.98;;;;;;;;;;5002797;28;60261;-68
2023/10/02 03:53:29;;;;;;;2.90;2.00;;;;;;;;;;4999839;28;58917;-67
2023/10/02 03:56:36;;;;;;;3.22;2.30;;;;;;;;;;5003077;28;58382;-67
2023/10/02 03:58:46;;;;;;;2.58;2.15;;;;;;;;;;5001863;28;58879;-67
2023/10/02 04:01:15;;;;;;;3.00;2.10;;;;;;;;;;5000994;28;59057;-67
2023/10/02 04:04:04;;;;;;;2.60;2.22;;;;;;;;;;5002688;28;58428;-68
2023/10/02 04:06:33;;;;;;;1.90;1.67;;;;;;;;;;5001926;28;59030;-67
2023/10/02 04:11:42;;;;;;;2.72;2.40;;;;;;;;;;5002306;28;58522;-67
2023/10/02 04:14:17;;;;;;;2.45;1.92;;;;;;;;;;5002810;28;58582;-68
2023/10/02 04:16:49;;;;;;;4.22;2.65;;;;;;;;;;5002286;28;58421;-67
2023/10/02 04:19:22;;;;;;;3.20;2.90;;;;;;;;;;5002076;28;59251;-68
2023/10/02 04:21:47;;;;;;;3.35;2.13;;;;;;;;;;5000832;28;59006;-67
2023/10/02 04:24:13;;;;;;;3.33;2.80;;;;;;;;;;5001917;28;58143;-68
2023/10/02 04:26:41;;;;;;;3.13;2.23;;;;;;;;;;5000229;28;59382;-69
2023/10/02 04:29:15;;;;;;;2.65;2.00;;;;;;;;;;4999245;28;59437;-68
2023/10/02 04:31:44;;;;;;;2.78;2.40;;;;;;;;;;5000963;28;58545;-68
2023/10/02 04:34:29;;;;;;;2.72;2.25;;;;;;;;;;4999886;28;58593;-68
2023/10/02 04:36:54;;;;;;;3.08;2.15;;;;;;;;;;4999391;28;58704;-68
2023/10/02 04:42:15;;;;;;;2.97;2.17;;;;;;;;;;4999920;28;61557;-68
2023/10/02 04:44:44;;;;;;;3.00;2.30;;;;;;;;;;4999993;28;58456;-67
2023/10/02 04:47:09;;;;;;;3.33;2.13;;;;;;;;;;4999764;28;58640;-67
2023/10/02 04:49:59;;;;;;;4.15;2.97;;;;;;;;;;4999576;28;58457;-67
2023/10/02 04:52:37;;;;;;;3.65;2.58;;;;;;;;;;5002193;28;58627;-67
2023/10/02 04:55:07;;;;;;;3.03;2.08;;;;;;;;;;5000648;28;59450;-68
2023/10/02 04:57:34;;;;;;;4.38;2.90;;;;;;;;;;5001500;28;58504;-67
2023/10/02 05:00:00;;;;;;;3.80;2.55;;;;;;;;;;5001686;28;59352;-67
2023/10/02 05:02:25;;;;;;;2.42;1.92;;;;;;;;;;4996583;28;58646;-67
2023/10/02 05:04:56;;;;;;;3.53;2.47;;;;;;;;;;4998618;28;58383;-68
2023/10/02 05:07:21;;;;;;;2.95;2.20;;;;;;;;;;5002506;28;58635;-67
2023/10/02 05:09:49;;;;;;;3.53;2.30;;;;;;;;;;5001193;28;58486;-68
2023/10/02 05:12:22;;;;;;;3.75;3.45;;;;;;;;;;5002661;28;58711;-68
2023/10/02 05:14:51;;;;;;;3.22;2.33;;;;;;;;;;5005046;28;60039;-67
2023/10/02 05:17:17;;;;;;;5.78;2.78;;;;;;;;;;5003718;28;58576;-67
2023/10/02 05:19:56;;;;;;;2.83;2.37;;;;;;;;;;5005244;28;60444;-68
2023/10/02 05:22:24;;;;;;;4.85;2.75;;;;;;;;;;5002950;28;59157;-68
2023/10/02 05:24:49;;;;;;;4.15;2.90;;;;;;;;;;5003254;28;58500;-67
2023/10/02 05:27:27;;;;;;;3.28;2.80;;;;;;;;;;5002486;28;60320;-67
2023/10/02 05:29:54;;;;;;;;;;;;;;;;;;5004136;28;59731;-67
2023/10/02 05:32:23;;;;;;;3.35;2.60;;;;;;;;;;5003116;28;58565;-67
2023/10/02 05:35:04;;;;;;;3.10;2.25;;;;;;;;;;5004811;28;60701;-67
2023/10/02 05:37:34;;;;;;;3.38;2.42;;;;;;;;;;5002492;28;59724;-67
2023/10/02 05:42:53;;;;;;;3.15;2.50;;;;;;;;;;5004355;28;58473;-67
2023/10/02 05:45:18;;;;;;;3.55;2.65;;;;;;;;;;5004401;28;58509;-67
2023/10/02 05:47:48;;;;;;;3.67;2.70;;;;;;;;;;5005088;28;60162;-68
2023/10/02 05:50:15;;;;;;;5.43;2.83;;;;;;;;;;5003375;28;60809;-68
2023/10/02 05:52:48;;;;;;;3.55;2.50;;;;;;;;;;5005054;28;58379;-68
2023/10/02 05:55:17;;;;;;;3.13;2.60;;;;;;;;;;5004826;28;60324;-68
2023/10/02 05:57:42;;;;;;;4.38;2.20;;;;;;;;;;5003271;28;58350;-68
2023/10/02 06:00:16;;;;;;;4.17;3.20;;;;;;;;;;5004705;28;58461;-68
2023/10/02 06:02:56;;;;;;;3.85;2.88;;;;;;;;;;5003592;28;59826;-68
2023/10/02 06:05:22;;;;;;;3.10;2.50;;;;;;;;;;5004355;28;58399;-68
2023/10/02 06:07:51;;;;;;;3.70;3.17;;;;;;;;;;5003926;28;59278;-68
2023/10/02 06:10:25;;;;;;;3.28;2.67;;;;;;;;;;5003166;28;58738;-68
2023/10/02 06:13:03;;;;;;;2.97;2.42;;;;;;;;;;5002540;28;58487;-68
2023/10/02 06:15:43;;;;;;;4.45;3.60;;;;;;;;;;5004098;28;59331;-68
2023/10/02 06:18:09;;;;;;;3.92;3.00;;;;;;;;;;5004033;28;63221;-68
2023/10/02 06:20:34;;;;;;;3.60;2.50;;;;;;;;;;5002342;28;58763;-68
2023/10/02 06:25:43;;;;;;;2.67;2.38;;;;;;;;;;5002904;28;58524;-69
2023/10/02 06:28:23;;;;;;;4.47;2.50;;;;;;;;;;5001316;28;59199;-68
2023/10/02 06:30:49;;;;;;;3.78;2.60;;;;;;;;;;5003409;28;59574;-68
2023/10/02 06:33:17;;;;;;;3.13;2.13;;;;;;;;;;5001698;28;58512;-68
2023/10/02 06:35:45;;;;;;;3.65;2.80;;;;;;;;;;5000938;28;59488;-68
2023/10/02 06:38:15;;;;;;;3.53;2.78;;;;;;;;;;4999089;28;59331;-68
2023/10/02 06:40:55;;;;;;;2.85;2.28;;;;;;;;;;5001161;28;58521;-68
2023/10/02 06:43:28;;;;;;;4.70;2.92;;;;;;;;;;5001697;28;60460;-68
2023/10/02 06:46:06;;;;;;;3.05;2.38;;;;;;;;;;5000795;28;59825;-68
2023/10/02 06:48:32;;;;;;;4.30;2.70;;;;;;;;;;4999830;28;60522;-68
2023/10/02 06:50:59;;;;;;;2.83;2.40;;;;;;;;;;5002954;28;59070;-68
2023/10/02 06:53:24;;;;;;;4.35;2.83;;;;;;;;;;5000049;28;58580;-68
2023/10/02 06:55:58;;;;;;;4.73;2.87;;;;;;;;;;4999648;28;59276;-68
2023/10/02 06:58:24;;;;;;;3.80;2.53;;;;;;;;;;4997166;28;60215;-67
2023/10/02 07:00:55;;;;;;;3.22;2.53;;;;;;;;;;4996591;28;58487;-68
2023/10/02 07:03:21;;;;;;;3.60;2.60;;;;;;;;;;5004565;28;59742;-68
2023/10/02 07:05:48;;;;;;;3.38;2.38;;;;;;;;;;5001818;28;59936;-68
2023/10/02 07:08:22;;;;;;;3.72;2.33;;;;;;;;;;5002920;28;59258;-68
2023/10/02 07:10:47;;;;;;;3.30;2.83;;;;;;;;;;5001347;28;60056;-71
2023/10/02 07:13:20;;;;;;;3.10;2.40;;;;;;;;;;5002114;28;58461;-78
2023/10/02 07:15:46;;;;;;;5.15;3.28;;;;;;;;;;5002325;28;60218;-71
2023/10/02 07:18:12;;;;;;;2.65;2.13;;;;;;;;;;5001258;28;59245;-70
2023/10/02 07:20:42;;;;;;;2.92;2.38;;;;;;;;;;4997070;28;58365;-70
2023/10/02 07:23:11;;;;;;;2.65;2.10;;;;;;;;;;4995141;28;59652;-72
2023/10/02 07:25:37;;;;;;;4.70;2.60;;;;;;;;;;4992785;28;58868;-68
2023/10/02 07:28:03;;;;;;;4.60;2.85;;;;;;;;;;4998335;28;58464;-70
2023/10/02 07:30:29;;;;;;;3.38;2.58;;;;;;;;;;5001309;28;58687;-68
2023/10/02 07:33:02;;;;;;;3.40;2.20;;;;;;;;;;5003497;28;58466;-67
2023/10/02 07:35:28;;;;;;;4.10;2.58;;;;;;;;;;5001795;28;59427;-67
2023/10/02 07:37:59;;;;;;;5.07;3.17;;;;;;;;;;5001470;28;59211;-67
2023/10/02 07:40:48;;;;;;;5.10;3.65;;;;;;;;;;5000562;28;58747;-68
2023/10/02 07:43:16;;;;;;;4.03;2.65;;;;;;;;;;5002288;28;60802;-69
2023/10/02 07:45:42;;;;;;;4.63;2.50;;;;;;;;;;4996722;28;58944;-75
2023/10/02 07:48:19;;;;;;;3.23;2.60;;;;;;;;;;4996902;28;58414;-70
2023/10/02 07:50:44;;;;;;;3.33;3.03;;;;;;;;;;5000316;28;59700;-74
2023/10/02 07:53:10;;;;;;;4.63;2.77;;;;;;;;;;5002347;28;58680;-70
2023/10/02 07:55:39;;;;;;;4.20;2.53;;;;;;;;;;4993481;28;59201;-72
2023/10/02 07:58:06;;;;;;;4.88;3.40;;;;;;;;;;5001410;28;59953;-73
2023/10/02 08:00:40;;;;;;;;;;;;;;;;;;4999469;28;58500;-67
2023/10/02 08:03:29;;;;;;;3.70;2.83;;;;;;;;;;4997273;28;59095;-73
2023/10/02 08:05:51;;;;;;;4.70;3.50;;;;;;;;;;4994664;28;59390;-69
2023/10/02 08:08:18;;;;;;;4.75;3.10;;;;;;;;;;4990185;28;58452;-66
2023/10/02 08:10:53;;;;;;;3.77;3.37;;;;;;;;;;4995925;28;59056;-70
2023/10/02 08:13:32;;;;;;;3.70;2.85;;;;;;;;;;4997134;28;58920;-68
2023/10/02 08:15:58;;;;;;;6.13;3.92;;;;;;;;;;4998124;28;59432;-67
2023/10/02 08:18:24;;;;;;;4.05;3.65;;;;;;;;;;4994207;28;58969;-69
2023/10/02 08:20:49;;;;;;;8.18;3.22;;;;;;;;;;4994462;28;58564;-73
2023/10/02 08:23:21;;;;;;;5.30;2.93;;;;;;;;;;4994948;28;59316;-74
2023/10/02 08:26:00;;;;;;;3.67;3.22;;;;;;;;;;4991147;28;58361;-72
2023/10/02 08:28:25;;;;;;;4.38;2.55;;;;;;;;;;4994461;28;58508;-70
2023/10/02 08:30:59;;;;;;;4.10;2.90;;;;;;;;;;4993386;28;59504;-70
2023/10/02 08:33:25;;;;;;;4.13;2.97;;;;;;;;;;4994010;28;58757;-67
2023/10/02 08:35:51;;;;;;;16.70;4.03;;;;;;;;;;4994836;28;58276;-71
2023/10/02 08:38:22;;;;;;;4.45;2.63;;;;;;;;;;4995335;28;58916;-72
2023/10/02 08:40:57;;;;;;;6.93;3.47;;;;;;;;;;4995397;28;58421;-70
2023/10/02 08:43:22;;;;;;;7.00;3.03;;;;;;;;;;4990359;28;61259;-68
2023/10/02 08:45:48;;;;;;;7.15;3.05;;;;;;;;;;4994685;28;59904;-67
2023/10/02 08:48:17;;;;;;;5.22;3.35;;;;;;;;;;5000142;28;58568;-69
2023/10/02 08:50:46;;;;;;;12.00;3.25;;;;;;;;;;5004729;28;60475;-68
2023/10/02 08:53:19;;;;;;;11.82;3.63;;;;;;;;;;5006402;28;59855;-68
2023/10/02 08:58:15;;;;;;;;;;;;;;;;;;5006754;28;58618;-69
2023/10/02 09:01:29;;;;;;;16.42;4.18;;;;;;;;;;5004382;28;58488;-68
2023/10/02 09:03:48;;;;;;;8.10;3.97;;;;;;;;;;5000922;28;59305;-69
2023/10/02 09:06:35;;;;;;;8.70;3.15;;;;;;;;;;5005110;28;58409;-69
2023/10/02 09:09:17;;;;;;;10.67;4.57;;;;;;;;;;5004968;28;58398;-67
2023/10/02 09:11:45;;;;;;;6.47;3.45;;;;;;;;;;5000985;28;59513;-69
2023/10/02 09:16:46;;;;;;;8.13;4.68;;;;;;;;;;5003201;28;58459;-71
2023/10/02 09:19:28;;;;;;;5.63;3.42;;;;;;;;;;5004358;28;59602;-66
2023/10/02 09:22:06;;;;;;;5.68;2.95;;;;;;;;;;5003762;28;58806;-67
2023/10/02 09:24:31;;;;;;;8.23;3.23;;;;;;;;;;5006121;28;60419;-68
2023/10/02 09:27:20;;;;;;;6.55;3.63;;;;;;;;;;5002616;28;64593;-70
2023/10/02 09:29:43;;;;;;;9.32;4.18;;;;;;;;;;5004317;28;58508;-70
2023/10/02 09:32:21;;;;;;;10.57;4.10;;;;;;;;;;5004411;28;59818;-70
2023/10/02 09:35:08;;;;;;;4.75;3.13;;;;;;;;;;5003390;28;59388;-72
2023/10/02 09:37:35;;;;;;;8.02;4.32;;;;;;;;;;5003952;28;58429;-76
2023/10/02 09:40:03;;;;;;;9.05;3.78;;;;;;;;;;5003401;28;60675;-73
2023/10/02 09:42:30;;;;;;;;;;;;;;;;;;5005044;28;58330;-71
2023/10/02 09:44:56;;;;;;;5.80;3.57;;;;;;;;;;5005718;28;58920;-73
2023/10/02 09:47:21;;;;;;;5.97;3.50;;;;;;;;;;5003140;28;59116;-71
2023/10/02 09:50:10;;;;;;;8.20;3.77;;;;;;;;;;5005060;28;59893;-70
2023/10/02 09:52:39;;;;;;;8.93;3.88;;;;;;;;;;5004467;28;60423;-73
2023/10/02 09:55:12;;;;;;;5.30;3.22;;;;;;;;;;4997081;28;60066;-71
2023/10/02 09:57:39;;;;;;;12.60;5.38;;;;;;;;;;4991337;28;58427;-69
2023/10/02 10:00:34;;;;;;;10.55;4.80;;;;;;;;;;4991548;28;59460;-72
2023/10/02 10:03:15;;;;;;;5.40;3.45;;;;;;;;;;4994371;28;59293;-71
2023/10/02 10:06:05;;;;;;;4.88;3.67;;;;;;;;;;4995481;28;58414;-74
2023/10/02 10:09:18;;;;;;;7.95;4.65;;;;;;;;;;4997210;28;59055;-70
2023/10/02 10:11:36;;;;;;;8.43;4.47;;;;;;;;;;4996280;28;58662;-72
2023/10/02 10:14:35;;;;;;;9.20;4.10;;;;;;;;;;4997337;28;60253;-74
2023/10/02 10:17:00;;;;;;;13.60;4.63;;;;;;;;;;4994558;28;60130;-73
2023/10/02 10:19:26;;;;;;;11.33;4.20;;;;;;;;;;4996890;28;58572;-70
2023/10/02 10:21:57;;;;;;;6.22;4.05;;;;;;;;;;4995598;28;60382;-69
2023/10/02 10:27:41;;;;;;;6.65;4.15;;;;;;;;;;4997982;28;58441;-70
2023/10/02 10:30:19;;;;;;;9.63;3.75;;;;;;;;;;4999298;28;63248;-70
2023/10/02 10:32:44;;;;;;;6.32;3.92;;;;;;;;;;5003457;28;58437;-68
2023/10/02 10:35:12;;;;;;;6.47;4.18;;;;;;;;;;4998482;28;59206;-67
2023/10/02 10:37:41;;;;;;;5.78;3.15;;;;;;;;;;5001114;28;58751;-67
2023/10/02 10:40:41;;;;;;;5.45;3.55;;;;;;;;;;4997936;28;58513;-67
2023/10/02 10:42:56;;;;;;;6.28;3.72;;;;;;;;;;5004201;28;58983;-67
2023/10/02 10:45:24;;;;;;;8.05;3.70;;;;;;;;;;4998025;28;58558;-67
2023/10/02 10:47:49;;;;;;;9.68;4.13;;;;;;;;;;5003104;28;58450;-67
2023/10/02 10:50:29;;;;;;;5.37;3.33;;;;;;;;;;5002763;28;60237;-68
2023/10/02 10:53:01;;;;;;;6.50;4.07;;;;;;;;;;4999820;28;59904;-66
2023/10/02 10:55:32;;;;;;;7.10;4.38;;;;;;;;;;5003356;28;60487;-67
2023/10/02 10:57:57;;;;;;;6.63;3.75;;;;;;;;;;5002692;28;58417;-67
2023/10/02 11:00:25;;;;;;;8.25;3.58;;;;;;;;;;5002231;28;58357;-67
2023/10/02 11:02:52;;;;;;;;;;;;;;;;;;5002885;28;60283;-68
2023/10/02 11:05:20;;;;;;;9.52;3.05;;;;;;;;;;5002809;28;59903;-68
2023/10/02 11:07:47;;;;;;;5.20;2.95;;;;;;;;;;5001093;28;58497;-68
2023/10/02 11:10:19;;;;;;;6.43;3.80;;;;;;;;;;4996805;28;59674;-68
2023/10/02 11:12:55;;;;;;;4.95;3.45;;;;;;;;;;5001960;28;58476;-67
2023/10/02 11:15:46;;;;;;;6.03;3.20;;;;;;;;;;5004018;28;58637;-67
2023/10/02 11:18:23;;;;;;;4.93;3.20;;;;;;;;;;5001889;28;64167;-67
2023/10/02 11:20:55;;;;;;;8.73;3.50;;;;;;;;;;5000367;28;58497;-67
2023/10/02 11:23:37;;;;;;;10.38;4.07;;;;;;;;;;4996953;28;60277;-66
2023/10/02 11:26:02;;;;;;;7.93;3.58;;;;;;;;;;4993429;28;60015;-68
2023/10/02 11:28:28;;;;;;;10.25;3.67;;;;;;;;;;4998375;28;58377;-67
2023/10/02 11:31:11;;;;;;;6.50;3.75;;;;;;;;;;5001273;28;60734;-67
2023/10/02 11:33:36;;;;;;;7.28;3.65;;;;;;;;;;5001619;28;60356;-67
2023/10/02 11:36:11;;;;;;;8.50;4.82;;;;;;;;;;5003375;28;58458;-67
2023/10/02 11:38:36;;;;;;;8.00;3.53;;;;;;;;;;4999429;28;58397;-67
2023/10/02 11:41:01;;;;;;;8.77;3.75;;;;;;;;;;5001964;28;60192;-67
2023/10/02 11:43:26;;;;;;;5.35;3.58;;;;;;;;;;5002814;28;58427;-67
2023/10/02 11:45:51;;;;;;;9.60;3.93;;;;;;;;;;4999656;28;58680;-67
2023/10/02 11:48:17;;;;;;;6.57;4.40;;;;;;;;;;4998346;28;58365;-76
2023/10/02 11:50:43;;;;;;;7.77;3.70;;;;;;;;;;5001592;28;59322;-67
2023/10/02 11:53:08;;;;;;;8.43;3.88;;;;;;;;;;5000788;28;59109;-67
2023/10/02 11:55:33;;;;;;;8.25;3.45;;;;;;;;;;5001557;28;58348;-67
2023/10/02 11:57:58;;;;;;;9.35;3.40;;;;;;;;;;5001800;28;59307;-66
2023/10/02 12:00:24;;;;;;;5.63;3.80;;;;;;;;;;4999292;28;58518;-66
2023/10/02 12:02:49;;;;;;;8.27;4.53;;;;;;;;;;5000474;28;59037;-67
2023/10/02 12:05:16;;;;;;;7.63;3.93;;;;;;;;;;5001543;28;59017;-66
2023/10/02 12:07:42;;;;;;;9.10;4.53;;;;;;;;;;5002202;28;58589;-66
2023/10/02 12:10:07;;;;;;;6.03;3.63;;;;;;;;;;5002445;28;58519;-67
2023/10/02 12:12:32;;;;;;;6.30;2.97;;;;;;;;;;4998428;28;60122;-67
2023/10/02 12:14:57;;;;;;;9.00;4.00;;;;;;;;;;5001781;28;58701;-68
2023/10/02 12:17:23;;;;;;;9.10;3.90;;;;;;;;;;4998424;28;59188;-69
2023/10/02 12:19:48;;;;;;;6.32;3.13;;;;;;;;;;4999309;28;58536;-69
2023/10/02 12:22:14;;;;;;;7.25;4.43;;;;;;;;;;5001222;28;60170;-72
2023/10/02 12:24:40;;;;;;;6.00;3.78;;;;;;;;;;4992952;28;59151;-67
2023/10/02 12:27:10;;;;;;;6.10;3.57;;;;;;;;;;5000404;28;58429;-70
2023/10/02 12:29:36;;;;;;;6.85;4.00;;;;;;;;;;5003464;28;59313;-69
2023/10/02 12:32:01;;;;;;;7.10;3.10;;;;;;;;;;4997485;28;59135;-68
2023/10/02 12:34:27;;;;;;;6.97;4.50;;;;;;;;;;4998221;28;58528;-67
2023/10/02 12:36:53;;;;;;;12.23;4.43;;;;;;;;;;5001766;28;60098;-67
2023/10/02 12:39:19;;;;;;;7.38;4.55;;;;;;;;;;5004499;28;58676;-67
2023/10/02 12:41:44;;;;;;;9.60;4.13;;;;;;;;;;5007486;28;58510;-66
2023/10/02 12:44:10;;;;;;;6.60;3.72;;;;;;;;;;5004495;28;58388;-67
2023/10/02 12:46:50;;;;;;;4.30;3.00;;;;;;;;;;5005265;28;58566;-67
2023/10/02 12:49:15;;;;;;;7.35;4.07;;;;;;;;;;5006646;28;60492;-67
2023/10/02 12:51:41;;;;;;;5.35;3.83;;;;;;;;;;5004690;28;59458;-67
2023/10/02 12:54:07;;;;;;;8.02;3.90;;;;;;;;;;5007493;28;58323;-68
2023/10/02 12:56:33;;;;;;;8.15;4.18;;;;;;;;;;5006111;28;59901;-68
2023/10/02 12:58:59;;;;;;;4.35;2.78;;;;;;;;;;5004307;28;59948;-68
2023/10/02 13:01:25;;;;;;;4.60;3.08;;;;;;;;;;5004990;28;58473;-68
2023/10/02 13:03:51;;;;;;;7.10;4.00;;;;;;;;;;5004714;28;60192;-68
2023/10/02 13:06:16;;;;;;;6.70;3.72;;;;;;;;;;5006124;28;59226;-68
2023/10/02 13:08:42;;;;;;;6.03;3.13;;;;;;;;;;5005233;28;58371;-68
2023/10/02 13:11:10;;;;;;;8.02;3.20;;;;;;;;;;5004734;28;58993;-70
2023/10/02 13:13:35;;;;;;;6.07;3.60;;;;;;;;;;5004102;28;58466;-68
2023/10/02 13:16:00;;;;;;;8.70;3.83;;;;;;;;;;5004411;28;58504;-67
2023/10/02 13:18:27;;;;;;;6.07;2.60;;;;;;;;;;5004040;28;58488;-68
2023/10/02 13:20:55;;;;;;;7.75;3.03;;;;;;;;;;5005570;28;58453;-68
2023/10/02 13:23:20;;;;;;;5.43;3.17;;;;;;;;;;5005941;28;59402;-68
2023/10/02 13:25:45;;;;;;;4.47;2.90;;;;;;;;;;5005727;28;58653;-69
2023/10/02 13:28:11;;;;;;;5.03;3.22;;;;;;;;;;5003577;28;59884;-68
2023/10/02 13:30:38;;;;;;;5.75;3.78;;;;;;;;;;5004050;28;58822;-68
2023/10/02 13:33:03;;;;;;;6.10;3.88;;;;;;;;;;5003924;28;58401;-68
2023/10/02 13:35:32;;;;;;;5.22;3.65;;;;;;;;;;5005773;28;59380;-67
2023/10/02 13:37:58;;;;;;;5.35;3.45;;;;;;;;;;5003931;28;59931;-68
2023/10/02 13:40:28;;;;;;;6.18;3.25;;;;;;;;;;5005967;28;58392;-67
2023/10/02 13:42:53;;;;;;;4.20;3.00;;;;;;;;;;5004096;28;59843;-67
2023/10/02 13:45:19;;;;;;;4.33;3.00;;;;;;;;;;5004833;28;60284;-67
2023/10/02 13:47:45;;;;;;;4.50;3.63;;;;;;;;;;5004908;28;60171;-68
2023/10/02 13:50:11;;;;;;;5.57;2.50;;;;;;;;;;5004491;28;59240;-68
2023/10/02 13:52:38;;;;;;;3.70;2.47;;;;;;;;;;5004767;28;58417;-68
2023/10/02 13:55:19;;;;;;;4.78;2.95;;;;;;;;;;5004899;28;59943;-67
2023/10/02 13:57:44;;;;;;;4.03;2.90;;;;;;;;;;5002812;28;60005;-68
2023/10/02 14:00:10;;;;;;;7.53;3.38;;;;;;;;;;5006030;28;58370;-67
2023/10/02 14:02:35;;;;;;;4.10;2.75;;;;;;;;;;5004145;28;59431;-66
2023/10/02 14:05:01;;;;;;;4.47;3.13;;;;;;;;;;4999325;28;58865;-66
2023/10/02 14:07:26;;;;;;;5.43;3.80;;;;;;;;;;4995233;28;58543;-67
2023/10/02 14:09:51;;;;;;;4.75;2.92;;;;;;;;;;4996822;28;58774;-67
2023/10/02 14:12:16;;;;;;;6.27;2.70;;;;;;;;;;4996967;28;58852;-67
2023/10/02 14:14:42;;;;;;;5.93;3.27;;;;;;;;;;4994849;28;60362;-67
2023/10/02 14:17:09;;;;;;;4.78;3.30;;;;;;;;;;4997362;28;59763;-67
2023/10/02 14:19:34;;;;;;;3.80;2.78;;;;;;;;;;4995376;28;58544;-67
2023/10/02 14:22:00;;;;;;;3.47;2.83;;;;;;;;;;4996453;28;60004;-67
2023/10/02 14:24:25;;;;;;;5.65;2.90;;;;;;;;;;5002191;28;58809;-67
2023/10/02 14:26:51;;;;;;;6.20;2.95;;;;;;;;;;5002992;28;58509;-67
2023/10/02 14:29:16;;;;;;;3.55;2.85;;;;;;;;;;5001925;28;60500;-67
2023/10/02 14:31:43;;;;;;;5.85;3.45;;;;;;;;;;5000717;28;58538;-67
2023/10/02 14:34:09;;;;;;;5.63;3.65;;;;;;;;;;5001117;28;60458;-67
2023/10/02 14:36:34;;;;;;;4.32;3.00;;;;;;;;;;5002206;28;58550;-67
2023/10/02 14:39:02;;;;;;;4.37;3.47;;;;;;;;;;5003926;28;58422;-67
2023/10/02 14:41:28;;;;;;;7.82;2.92;;;;;;;;;;4998092;28;58803;-67
2023/10/02 14:43:53;;;;;;;4.47;2.80;;;;;;;;;;5001600;28;59081;-67
2023/10/02 14:46:19;;;;;;;4.88;3.05;;;;;;;;;;5001200;28;58497;-67
2023/10/02 14:48:44;;;;;;;4.55;2.70;;;;;;;;;;5003341;28;59405;-67
2023/10/02 14:51:09;;;;;;;6.90;2.83;;;;;;;;;;5006027;28;58738;-67
2023/10/02 14:53:34;;;;;;;5.07;2.73;;;;;;;;;;5002004;28;59449;-67
2023/10/02 14:56:06;;;;;;;6.80;3.10;;;;;;;;;;4996689;28;58989;-67
2023/10/02 14:58:31;;;;;;;5.55;2.63;;;;;;;;;;4995696;28;58500;-67
2023/10/02 15:00:57;;;;;;;4.60;3.08;;;;;;;;;;4991751;28;59497;-67
2023/10/02 15:03:22;;;;;;;7.00;2.97;;;;;;;;;;4982820;28;58609;-67
2023/10/02 15:05:47;;;;;;;3.60;2.90;;;;;;;;;;4999196;28;58524;-67
2023/10/02 15:08:13;;;;;;;5.00;2.38;;;;;;;;;;4999511;28;60185;-67
2023/10/02 15:10:42;;;;;;;3.97;2.90;;;;;;;;;;5000155;28;58680;-67
2023/10/02 15:13:07;;;;;;;6.40;3.03;;;;;;;;;;5000190;28;58455;-67
2023/10/02 15:15:32;;;;;;;4.10;3.00;;;;;;;;;;4997027;28;58730;-68
2023/10/02 15:17:58;;;;;;;7.23;3.40;;;;;;;;;;4998656;28;58885;-68
2023/10/02 15:20:23;;;;;;;3.73;2.80;;;;;;;;;;4999067;28;59301;-67
2023/10/02 15:22:50;;;;;;;5.43;2.72;;;;;;;;;;4994567;28;59045;-68